Time;durP1;ratioP1;P1;durP2;ratioP2;P2;SDS_P1;SDS_P2;PMS_P1;PMS_P2;Temp;Humidity;BMP_temperature;BMP_pressure;BME280_temperature;BME280_humidity;BME280_pressure;Samples;Min_cycle;Max_cycle;Signal;HPM_P1;HPM_P2
2022/08/03 00:00:06;;;;;;;3.57;2.97;;;23.50;99.90;;;;;;5068210;28;20391;-65
2022/08/03 00:02:31;;;;;;;4.28;3.10;;;23.50;99.90;;;;;;5067625;28;20388;-65
2022/08/03 00:04:57;;;;;;;5.00;3.30;;;23.50;99.90;;;;;;5070089;28;20395;-65
2022/08/03 00:07:22;;;;;;;3.47;2.93;;;23.40;99.90;;;;;;5067466;28;20387;-65
2022/08/03 00:09:49;;;;;;;3.83;2.90;;;23.30;99.90;;;;;;5068562;28;20443;-65
2022/08/03 00:12:14;;;;;;;3.00;2.70;;;23.30;99.90;;;;;;5102489;28;20387;-67
2022/08/03 00:14:40;;;;;;;3.53;3.22;;;23.30;99.90;;;;;;5069488;28;20376;-66
2022/08/03 00:17:06;;;;;;;7.80;3.60;;;23.30;99.90;;;;;;5066767;28;20384;-65
2022/08/03 00:19:31;;;;;;;3.38;3.08;;;23.30;99.90;;;;;;5066252;28;20388;-67
2022/08/03 00:21:57;;;;;;;3.90;3.20;;;23.30;99.90;;;;;;5067057;28;20592;-65
2022/08/03 00:24:22;;;;;;;3.63;3.08;;;23.20;99.90;;;;;;5067475;28;20788;-65
2022/08/03 00:26:48;;;;;;;4.60;3.37;;;23.20;99.90;;;;;;5069655;28;20399;-65
2022/08/03 00:29:13;;;;;;;5.15;3.40;;;23.20;99.90;;;;;;5100653;28;20561;-66
2022/08/03 00:31:39;;;;;;;5.43;3.23;;;23.20;99.90;;;;;;5099750;28;20398;-66
2022/08/03 00:34:05;;;;;;;3.70;3.20;;;23.10;99.90;;;;;;5066498;28;20461;-66
2022/08/03 00:36:30;;;;;;;4.40;3.20;;;23.10;99.90;;;;;;5067058;28;20554;-65
2022/08/03 00:38:56;;;;;;;6.47;3.40;;;23.10;99.90;;;;;;5068366;28;20715;-65
2022/08/03 00:41:22;;;;;;;4.72;3.42;;;23.10;99.90;;;;;;5069442;28;20476;-66
2022/08/03 00:43:48;;;;;;;3.50;3.20;;;23.00;99.90;;;;;;5069345;28;20473;-65
2022/08/03 00:46:13;;;;;;;3.55;3.22;;;23.00;99.90;;;;;;5102814;28;20376;-65
2022/08/03 00:48:39;;;;;;;3.20;2.90;;;23.00;99.90;;;;;;5068803;28;20474;-65
2022/08/03 00:51:05;;;;;;;3.50;2.90;;;23.00;99.90;;;;;;5069039;28;20391;-65
2022/08/03 00:53:31;;;;;;;3.47;3.03;;;23.00;99.90;;;;;;5068807;28;20783;-65
2022/08/03 00:55:57;;;;;;;3.40;3.10;;;23.00;99.90;;;;;;5103367;28;20399;-66
2022/08/03 00:58:23;;;;;;;4.43;3.10;;;22.90;99.90;;;;;;5068053;28;20387;-66
2022/08/03 01:00:49;;;;;;;4.25;3.28;;;22.90;99.90;;;;;;5068204;28;20625;-65
2022/08/03 01:03:15;;;;;;;4.45;3.35;;;22.90;99.90;;;;;;5066613;28;20452;-66
2022/08/03 01:06:26;;;;;;;4.53;3.45;;;22.80;99.90;;;;;;5067611;28;20494;-65
2022/08/03 01:09:02;;;;;;;4.67;3.30;;;22.70;99.90;;;;;;5030078;28;20604;-66
2022/08/03 01:11:49;;;;;;;5.68;3.50;;;22.60;99.90;;;;;;5030889;28;20397;-66
2022/08/03 01:14:36;;;;;;;4.85;3.53;;;22.60;99.90;;;;;;5072902;28;20779;-66
2022/08/03 01:17:15;;;;;;;5.30;3.47;;;22.60;99.90;;;;;;5068223;28;20386;-66
2022/08/03 01:20:00;;;;;;;3.90;3.20;;;22.50;99.90;;;;;;5067694;28;20400;-66
2022/08/03 01:22:48;;;;;;;4.93;3.47;;;22.50;99.90;;;;;;5069278;28;20402;-66
2022/08/03 01:25:40;;;;;;;3.38;3.08;;;22.50;99.90;;;;;;5101534;28;20482;-65
2022/08/03 01:28:25;;;;;;;5.33;3.47;;;22.50;99.90;;;;;;5069850;28;20404;-66
2022/08/03 01:30:53;;;;;;;4.75;3.20;;;22.50;99.90;;;;;;5104050;28;20448;-66
2022/08/03 01:33:28;;;;;;;4.33;3.53;;;22.50;99.90;;;;;;5070564;28;20627;-65
2022/08/03 01:36:03;;;;;;;5.50;3.40;;;22.40;99.90;;;;;;5071565;28;20788;-65
2022/08/03 01:38:37;;;;;;;4.60;3.20;;;22.40;99.90;;;;;;5072944;28;20506;-65
2022/08/03 01:41:19;;;;;;;4.80;3.22;;;22.40;99.90;;;;;;5071864;28;20407;-66
2022/08/03 01:43:48;;;;;;;3.60;3.30;;;22.40;99.90;;;;;;5071386;28;20806;-66
2022/08/03 01:46:15;;;;;;;4.47;3.35;;;22.40;99.90;;;;;;5071731;28;20795;-65
2022/08/03 01:48:43;;;;;;;3.60;3.30;;;22.30;99.90;;;;;;5071030;28;20387;-66
2022/08/03 01:51:10;;;;;;;3.70;3.22;;;22.20;99.90;;;;;;5071229;28;20740;-65
2022/08/03 01:53:41;;;;;;;3.53;3.00;;;22.10;99.90;;;;;;5070063;28;20726;-65
2022/08/03 01:56:08;;;;;;;3.30;2.83;;;22.10;99.90;;;;;;5072450;28;20531;-65
2022/08/03 01:58:36;;;;;;;4.65;3.70;;;22.10;99.90;;;;;;5073665;28;20392;-65
2022/08/03 02:01:03;;;;;;;4.20;3.10;;;22.10;99.90;;;;;;5074009;28;20722;-65
2022/08/03 02:03:32;;;;;;;4.70;3.40;;;22.10;99.90;;;;;;5107174;28;20392;-66
2022/08/03 02:05:59;;;;;;;6.60;3.30;;;22.10;99.90;;;;;;5075448;28;20392;-65
2022/08/03 02:08:27;;;;;;;3.95;3.22;;;22.10;99.90;;;;;;5075746;28;20440;-65
2022/08/03 02:10:56;;;;;;;3.72;3.40;;;22.00;99.90;;;;;;5075846;28;20410;-66
2022/08/03 02:13:25;;;;;;;5.00;3.67;;;22.00;99.90;;;;;;5076057;28;20457;-65
2022/08/03 02:15:51;;;;;;;4.57;3.50;;;21.90;99.90;;;;;;5075215;28;20872;-66
2022/08/03 02:18:19;;;;;;;3.25;2.92;;;21.90;99.90;;;;;;5075731;28;20380;-65
2022/08/03 02:20:45;;;;;;;5.60;3.60;;;21.90;99.90;;;;;;5074633;28;20400;-66
2022/08/03 02:23:13;;;;;;;4.45;3.47;;;21.80;99.90;;;;;;5074154;28;20420;-66
2022/08/03 02:25:44;;;;;;;4.10;3.13;;;21.80;99.90;;;;;;5074523;28;20423;-66
2022/08/03 02:28:15;;;;;;;3.78;3.42;;;21.80;99.90;;;;;;5106034;28;20376;-65
2022/08/03 02:30:43;;;;;;;4.65;3.45;;;21.80;99.90;;;;;;5072404;28;20408;-65
2022/08/03 02:33:21;;;;;;;5.32;3.25;;;21.70;99.90;;;;;;5072593;28;20400;-65
2022/08/03 02:35:49;;;;;;;3.83;3.53;;;21.70;99.90;;;;;;5075219;28;20406;-65
2022/08/03 02:38:17;;;;;;;3.90;3.40;;;21.70;99.90;;;;;;5073346;28;20766;-65
2022/08/03 02:40:43;;;;;;;3.77;3.40;;;21.70;99.90;;;;;;5072427;28;20403;-66
2022/08/03 02:43:15;;;;;;;5.15;3.60;;;21.70;99.90;;;;;;5074503;28;20653;-65
2022/08/03 02:45:44;;;;;;;10.32;3.75;;;21.60;99.90;;;;;;5074832;28;20703;-66
2022/08/03 02:48:11;;;;;;;3.55;3.25;;;21.60;99.90;;;;;;5072025;28;20671;-66
2022/08/03 02:50:38;;;;;;;3.72;3.30;;;21.60;99.90;;;;;;5072386;28;20581;-65
2022/08/03 02:53:06;;;;;;;5.90;3.63;;;21.60;99.90;;;;;;5070935;28;20434;-65
2022/08/03 02:55:34;;;;;;;4.63;3.38;;;21.50;99.90;;;;;;5106418;28;20415;-65
2022/08/03 02:58:01;;;;;;;3.53;3.22;;;21.50;99.90;;;;;;5073517;28;20926;-65
2022/08/03 03:00:27;;;;;;;4.32;3.67;;;21.50;99.90;;;;;;5073437;28;20396;-65
2022/08/03 03:02:57;;;;;;;4.53;3.60;;;21.50;99.90;;;;;;5073419;28;20497;-66
2022/08/03 03:05:23;;;;;;;4.43;3.78;;;21.50;99.90;;;;;;5073050;28;20668;-66
2022/08/03 03:07:49;;;;;;;4.88;3.60;;;21.40;99.90;;;;;;5072134;28;20455;-65
2022/08/03 03:10:14;;;;;;;5.90;3.67;;;21.40;99.90;;;;;;5070337;28;20546;-65
2022/08/03 03:12:42;;;;;;;5.90;4.17;;;21.30;99.90;;;;;;5070613;28;20406;-65
2022/08/03 03:15:09;;;;;;;5.28;3.80;;;21.30;99.90;;;;;;5068168;28;20388;-66
2022/08/03 03:17:36;;;;;;;4.65;3.90;;;21.30;99.90;;;;;;5067489;28;20380;-66
2022/08/03 03:20:03;;;;;;;4.50;3.70;;;21.20;99.90;;;;;;5102637;28;20897;-65
2022/08/03 03:22:32;;;;;;;6.28;3.60;;;21.20;99.90;;;;;;5069589;28;20411;-65
2022/08/03 03:24:58;;;;;;;6.75;3.83;;;21.20;99.90;;;;;;5070509;28;20372;-65
2022/08/03 03:27:24;;;;;;;5.55;3.88;;;21.10;99.90;;;;;;5073605;28;20390;-65
2022/08/03 03:29:50;;;;;;;6.32;4.10;;;21.10;99.90;;;;;;5105223;28;20424;-65
2022/08/03 03:32:16;;;;;;;5.03;3.97;;;21.10;99.90;;;;;;5073083;28;20573;-65
2022/08/03 03:34:42;;;;;;;5.82;3.85;;;21.10;99.90;;;;;;5105092;28;20407;-65
2022/08/03 03:37:07;;;;;;;4.68;3.67;;;21.10;99.90;;;;;;5072181;28;20461;-65
2022/08/03 03:39:35;;;;;;;3.83;3.43;;;21.10;99.90;;;;;;5073837;28;20384;-65
2022/08/03 03:42:01;;;;;;;3.80;3.50;;;21.20;99.90;;;;;;5073313;28;20387;-65
2022/08/03 03:44:28;;;;;;;8.05;4.00;;;21.20;99.90;;;;;;5071701;28;20388;-65
2022/08/03 03:46:56;;;;;;;6.53;4.05;;;21.20;99.90;;;;;;5070975;28;20387;-65
2022/08/03 03:49:22;;;;;;;7.32;4.20;;;21.10;99.90;;;;;;5071652;28;20416;-65
2022/08/03 03:51:51;;;;;;;7.03;4.28;;;21.10;99.90;;;;;;5072295;28;20403;-65
2022/08/03 03:54:16;;;;;;;4.35;3.95;;;21.10;99.90;;;;;;5072561;28;20403;-65
2022/08/03 03:56:42;;;;;;;5.57;3.63;;;21.10;99.90;;;;;;5073326;28;20387;-65
2022/08/03 03:59:07;;;;;;;5.80;3.75;;;21.10;99.90;;;;;;5105205;28;20395;-65
2022/08/03 04:01:33;;;;;;;9.50;4.70;;;21.10;99.90;;;;;;5069729;28;20404;-65
2022/08/03 04:10:57;;;;;;;5.45;3.92;;;21.10;99.90;;;;;;5069158;28;20435;-65
2022/08/03 04:12:16;;;;;;;8.75;5.03;;;21.00;99.90;;;;;;5066066;28;20425;-65
2022/08/03 04:14:43;;;;;;;7.45;4.30;;;21.00;99.90;;;;;;5062389;28;20873;-65
2022/08/03 04:17:13;;;;;;;8.65;4.18;;;21.00;99.90;;;;;;5061926;28;20494;-65
2022/08/03 04:19:46;;;;;;;4.88;4.15;;;21.00;99.90;;;;;;5060897;28;20383;-65
2022/08/03 04:22:18;;;;;;;9.23;4.78;;;21.00;99.90;;;;;;5061030;28;20614;-65
2022/08/03 04:24:47;;;;;;;9.52;4.30;;;21.00;99.90;;;;;;5060931;28;20384;-65
2022/08/03 04:27:19;;;;;;;5.97;4.10;;;20.90;99.90;;;;;;5062998;28;20376;-65
2022/08/03 04:29:48;;;;;;;6.80;4.28;;;20.90;99.90;;;;;;5063924;28;20756;-65
2022/08/03 04:32:14;;;;;;;5.10;4.05;;;21.00;99.90;;;;;;5065276;28;20383;-65
2022/08/03 04:34:39;;;;;;;6.10;4.07;;;21.00;99.90;;;;;;5067079;28;20454;-65
2022/08/03 04:37:16;;;;;;;4.37;3.93;;;21.10;99.90;;;;;;5068275;28;20400;-65
2022/08/03 04:39:43;;;;;;;4.32;3.92;;;21.10;99.90;;;;;;5067571;28;20387;-65
2022/08/03 04:42:12;;;;;;;7.53;4.57;;;21.10;99.90;;;;;;5066501;28;20497;-65
2022/08/03 04:44:40;;;;;;;5.47;4.22;;;21.00;99.90;;;;;;5067097;28;20391;-65
2022/08/03 04:47:06;;;;;;;5.82;4.13;;;21.00;99.90;;;;;;5065693;28;20384;-65
2022/08/03 04:49:34;;;;;;;6.35;4.65;;;21.00;99.90;;;;;;5063821;28;20384;-65
2022/08/03 04:52:00;;;;;;;6.10;4.20;;;21.00;99.90;;;;;;5062333;28;20642;-65
2022/08/03 04:54:25;;;;;;;5.20;4.40;;;21.00;99.90;;;;;;5058153;28;20757;-66
2022/08/03 04:56:51;;;;;;;5.33;4.60;;;21.10;99.90;;;;;;5057458;28;20803;-65
2022/08/03 04:59:16;;;;;;;6.20;4.60;;;21.10;99.90;;;;;;5091067;28;20452;-65
2022/08/03 05:01:42;;;;;;;6.20;4.43;;;21.10;99.90;;;;;;5057284;28;20546;-65
2022/08/03 05:04:08;;;;;;;5.60;4.07;;;21.20;99.90;;;;;;5057190;28;20742;-65
2022/08/03 05:06:34;;;;;;;6.55;4.20;;;21.20;99.90;;;;;;5059448;28;20647;-65
2022/08/03 05:09:00;;;;;;;6.70;4.50;;;21.20;99.90;;;;;;5092428;28;20453;-65
2022/08/03 05:11:25;;;;;;;7.27;4.20;;;21.20;99.90;;;;;;5093988;28;20594;-65
2022/08/03 05:13:51;;;;;;;9.33;4.40;;;21.30;99.90;;;;;;5064146;28;20392;-65
2022/08/03 05:16:16;;;;;;;9.03;5.03;;;21.30;99.90;;;;;;5094764;28;20400;-65
2022/08/03 05:18:42;;;;;;;8.20;4.83;;;21.30;99.90;;;;;;5057912;28;20741;-65
2022/08/03 05:21:09;;;;;;;5.07;4.20;;;21.30;99.90;;;;;;5059242;28;20646;-65
2022/08/03 05:23:35;;;;;;;6.97;4.97;;;21.30;99.90;;;;;;5058093;28;20486;-65
2022/08/03 05:26:00;;;;;;;7.80;4.60;;;21.30;99.90;;;;;;5060190;28;20545;-66
2022/08/03 05:28:26;;;;;;;7.33;4.87;;;21.20;99.90;;;;;;5059462;28;20934;-65
2022/08/03 05:30:52;;;;;;;6.97;4.90;;;21.30;99.90;;;;;;5063559;28;20810;-65
2022/08/03 05:33:17;;;;;;;4.63;4.03;;;21.30;99.90;;;;;;5064601;28;20498;-65
2022/08/03 05:35:43;;;;;;;8.48;4.90;;;21.40;99.90;;;;;;5065436;28;20826;-65
2022/08/03 05:38:08;;;;;;;8.30;4.57;;;21.40;99.90;;;;;;5097624;28;20403;-65
2022/08/03 05:40:34;;;;;;;7.57;5.40;;;21.30;99.90;;;;;;5065186;28;20541;-66
2022/08/03 05:43:00;;;;;;;6.37;4.60;;;21.30;99.90;;;;;;5066785;28;20490;-65
2022/08/03 05:45:26;;;;;;;6.03;4.45;;;21.30;99.90;;;;;;5063280;28;20655;-65
2022/08/03 05:47:51;;;;;;;7.97;4.97;;;21.30;99.90;;;;;;5062021;28;20764;-65
2022/08/03 05:50:18;;;;;;;5.78;4.78;;;21.30;99.90;;;;;;5063074;28;20710;-65
2022/08/03 05:52:44;;;;;;;7.35;5.10;;;21.30;99.90;;;;;;5062990;28;20392;-65
2022/08/03 05:55:12;;;;;;;7.15;4.95;;;21.40;99.90;;;;;;5062547;28;20465;-65
2022/08/03 05:57:38;;;;;;;7.78;4.72;;;21.40;99.90;;;;;;5063502;28;20483;-65
2022/08/03 06:00:09;;;;;;;8.82;5.28;;;21.50;99.90;;;;;;5061631;28;20677;-65
2022/08/03 06:02:35;;;;;;;6.90;5.10;;;21.50;99.90;;;;;;5060331;28;20478;-65
2022/08/03 06:05:00;;;;;;;7.45;5.07;;;21.50;99.90;;;;;;5059690;28;20737;-65
2022/08/03 06:07:26;;;;;;;5.10;4.60;;;21.50;99.90;;;;;;5059878;28;20462;-65
2022/08/03 06:09:51;;;;;;;7.78;5.10;;;21.50;99.90;;;;;;5061661;28;20383;-65
2022/08/03 06:12:17;;;;;;;9.23;5.10;;;21.60;99.90;;;;;;5058356;28;20387;-65
2022/08/03 06:14:43;;;;;;;9.93;4.75;;;21.70;99.90;;;;;;5056170;28;20380;-65
2022/08/03 06:17:08;;;;;;;6.97;4.00;;;21.70;99.90;;;;;;5089306;28;20376;-65
2022/08/03 06:19:34;;;;;;;7.57;4.95;;;21.80;99.90;;;;;;5056108;28;20390;-65
2022/08/03 06:22:00;;;;;;;7.83;4.90;;;21.80;99.90;;;;;;5089872;28;20415;-65
2022/08/03 06:24:25;;;;;;;8.38;4.50;;;21.90;99.90;;;;;;5065185;28;20887;-65
2022/08/03 06:26:51;;;;;;;8.65;4.47;;;21.90;99.90;;;;;;5088168;28;20397;-65
2022/08/03 06:29:16;;;;;;;5.67;4.10;;;21.90;99.90;;;;;;5089998;28;20479;-65
2022/08/03 06:31:42;;;;;;;4.10;3.70;;;22.00;99.90;;;;;;5091814;28;20386;-66
2022/08/03 06:34:07;;;;;;;7.53;4.23;;;22.10;99.90;;;;;;5092958;28;20426;-66
2022/08/03 06:36:33;;;;;;;5.83;4.90;;;22.10;99.90;;;;;;5075705;28;20496;-65
2022/08/03 06:38:59;;;;;;;4.77;4.27;;;22.10;99.90;;;;;;5074051;28;20398;-65
2022/08/03 06:41:26;;;;;;;6.90;4.70;;;22.10;99.90;;;;;;5071520;28;20437;-65
2022/08/03 06:43:51;;;;;;;4.80;4.25;;;22.20;99.90;;;;;;5070756;28;20401;-65
2022/08/03 06:46:17;;;;;;;7.45;5.00;;;22.20;99.90;;;;;;5069047;28;20378;-66
2022/08/03 06:48:42;;;;;;;6.53;3.90;;;22.20;99.90;;;;;;5068931;28;20416;-65
2022/08/03 06:51:09;;;;;;;3.88;3.58;;;22.30;99.90;;;;;;5064157;28;20393;-65
2022/08/03 06:53:35;;;;;;;6.57;3.72;;;22.40;99.90;;;;;;5076700;28;20425;-65
2022/08/03 06:56:00;;;;;;;5.95;4.10;;;22.40;99.90;;;;;;5077175;28;20424;-66
2022/08/03 06:58:26;;;;;;;8.03;3.97;;;22.50;99.90;;;;;;5057732;28;20606;-65
2022/08/03 07:00:52;;;;;;;6.40;4.03;;;22.60;99.90;;;;;;5051029;28;20798;-65
2022/08/03 07:03:17;;;;;;;5.95;3.38;;;22.70;99.90;;;;;;5073996;28;20666;-65
2022/08/03 07:05:45;;;;;;;4.67;3.60;;;22.80;99.90;;;;;;5056420;28;20408;-65
2022/08/03 07:08:10;;;;;;;7.25;4.00;;;22.80;99.90;;;;;;5058661;28;20936;-65
2022/08/03 07:10:36;;;;;;;6.55;3.70;;;22.90;99.90;;;;;;5057319;28;20665;-65
2022/08/03 07:13:02;;;;;;;5.20;3.60;;;23.00;99.90;;;;;;5060192;28;20439;-65
2022/08/03 07:15:28;;;;;;;6.27;3.47;;;23.10;99.90;;;;;;5081564;28;20432;-65
2022/08/03 07:17:53;;;;;;;7.97;3.55;;;23.10;99.90;;;;;;5080555;28;20610;-65
2022/08/03 07:20:19;;;;;;;6.72;3.30;;;23.20;99.90;;;;;;5060392;28;20405;-65
2022/08/03 07:22:45;;;;;;;4.97;3.30;;;23.30;99.90;;;;;;5057590;28;20809;-65
2022/08/03 07:25:10;;;;;;;5.45;3.42;;;23.30;99.90;;;;;;5061320;28;20382;-65
2022/08/03 07:27:37;;;;;;;6.67;3.70;;;23.40;99.90;;;;;;5059244;28;20377;-65
2022/08/03 07:30:05;;;;;;;7.60;3.33;;;23.40;99.90;;;;;;5058705;28;20573;-65
2022/08/03 07:32:31;;;;;;;4.65;3.47;;;23.50;99.90;;;;;;5057879;28;20462;-65
2022/08/03 07:34:56;;;;;;;4.90;3.15;;;23.60;99.90;;;;;;5077521;28;20799;-65
2022/08/03 07:37:22;;;;;;;3.17;2.83;;;23.60;99.90;;;;;;5080448;28;20684;-65
2022/08/03 07:39:47;;;;;;;4.78;3.03;;;23.60;99.90;;;;;;5078785;28;20605;-65
2022/08/03 07:42:13;;;;;;;5.20;3.00;;;23.70;99.90;;;;;;5077830;28;20386;-65
2022/08/03 07:44:38;;;;;;;4.53;2.60;;;23.70;99.90;;;;;;5081459;28;20397;-65
2022/08/03 07:47:04;;;;;;;6.10;3.37;;;23.80;99.90;;;;;;5079118;28;20463;-65
2022/08/03 07:49:30;;;;;;;3.33;2.90;;;23.90;99.90;;;;;;5076755;28;20661;-65
2022/08/03 07:54:40;;;;;;;3.88;2.65;;;24.10;99.90;;;;;;5076093;28;20883;-66
2022/08/03 07:57:05;;;;;;;4.03;2.70;;;24.20;99.90;;;;;;5074364;28;20689;-65
2022/08/03 07:59:31;;;;;;;4.78;3.28;;;24.20;99.90;;;;;;5074190;28;20378;-65
2022/08/03 08:01:57;;;;;;;3.40;2.30;;;24.20;99.90;;;;;;5076112;28;20643;-65
2022/08/03 08:04:22;;;;;;;4.57;2.70;;;24.20;99.90;;;;;;5076619;28;20378;-65
2022/08/03 08:06:48;;;;;;;4.97;2.40;;;24.20;99.90;;;;;;5078687;28;20370;-65
2022/08/03 08:09:14;;;;;;;2.45;2.10;;;24.40;99.90;;;;;;5082829;28;20390;-65
2022/08/03 08:11:39;;;;;;;4.97;2.22;;;24.50;99.90;;;;;;5080281;28;20565;-65
2022/08/03 08:14:06;;;;;;;6.07;2.33;;;24.70;99.90;;;;;;5076458;28;20385;-65
2022/08/03 08:16:31;;;;;;;4.27;2.30;;;24.80;99.90;;;;;;5076809;28;20425;-65
2022/08/03 08:18:57;;;;;;;4.73;2.47;;;25.00;99.90;;;;;;5075372;28;20489;-65
2022/08/03 08:21:23;;;;;;;4.28;2.03;;;25.00;99.90;;;;;;5074755;28;20398;-65
2022/08/03 08:23:48;;;;;;;3.77;2.23;;;25.10;99.90;;;;;;5077284;28;21115;-65
2022/08/03 08:26:15;;;;;;;6.30;2.22;;;25.20;99.90;;;;;;5077789;28;20378;-65
2022/08/03 08:28:40;;;;;;;5.43;2.08;;;25.30;99.90;;;;;;5079726;28;20505;-65
2022/08/03 08:31:06;;;;;;;5.10;1.80;;;25.30;99.90;;;;;;5077780;28;20581;-65
2022/08/03 08:33:33;;;;;;;6.75;2.25;;;25.40;99.90;;;;;;5084172;28;20410;-65
2022/08/03 08:35:59;;;;;;;4.63;1.95;;;25.50;99.90;;;;;;5066729;28;20845;-66
2022/08/03 08:38:25;;;;;;;4.90;2.20;;;25.60;99.90;;;;;;5084785;28;20389;-66
2022/08/03 08:40:53;;;;;;;3.55;1.60;;;25.60;99.90;;;;;;5058568;28;20505;-66
2022/08/03 08:43:19;;;;;;;6.65;2.05;;;25.60;99.90;;;;;;5058762;28;20429;-66
2022/08/03 08:45:47;;;;;;;7.40;2.23;;;25.70;99.90;;;;;;5079632;28;20386;-66
2022/08/03 08:48:14;;;;;;;4.82;2.28;;;25.70;99.90;;;;;;5082039;28;20415;-66
2022/08/03 08:50:40;;;;;;;7.38;2.20;;;25.80;99.90;;;;;;5064351;28;20425;-66
2022/08/03 08:53:09;;;;;;;6.80;2.25;;;25.90;99.90;;;;;;5061854;28;20744;-66
2022/08/03 08:55:35;;;;;;;3.27;1.67;;;25.90;99.90;;;;;;5065793;28;20382;-66
2022/08/03 08:58:05;;;;;;;4.43;2.20;;;26.00;99.90;;;;;;5067202;28;20393;-66
2022/08/03 09:00:30;;;;;;;3.08;2.17;;;26.00;99.90;;;;;;5065363;28;20677;-66
2022/08/03 09:02:56;;;;;;;6.13;2.27;;;25.90;99.90;;;;;;5063478;28;20398;-66
2022/08/03 09:05:22;;;;;;;3.93;2.20;;;25.90;99.90;;;;;;5062493;28;20396;-66
2022/08/03 09:07:49;;;;;;;4.63;2.17;;;25.90;99.90;;;;;;5064414;28;20477;-67
2022/08/03 09:10:20;;;;;;;5.22;2.22;;;26.00;99.90;;;;;;5085110;28;20415;-66
2022/08/03 09:12:48;;;;;;;4.70;2.10;;;26.10;99.90;;;;;;5068763;28;20378;-66
2022/08/03 09:15:18;;;;;;;4.57;2.10;;;26.10;99.90;;;;;;5069997;28;20882;-67
2022/08/03 09:17:44;;;;;;;3.90;2.23;;;26.10;99.90;;;;;;5071365;28;20430;-66
2022/08/03 09:20:10;;;;;;;3.63;2.30;;;26.20;99.90;;;;;;5071854;28;20429;-66
2022/08/03 09:23:00;;;;;;;5.93;2.10;;;26.20;99.90;;;;;;5089795;28;20504;-66
2022/08/03 09:25:33;;;;;;;4.43;1.95;;;26.30;99.90;;;;;;5089315;28;20813;-66
2022/08/03 09:28:08;;;;;;;5.65;1.98;;;26.30;99.90;;;;;;5071682;28;20416;-67
2022/08/03 09:30:35;;;;;;;6.53;2.10;;;26.30;99.90;;;;;;5070803;28;20385;-66
2022/08/03 09:33:09;;;;;;;6.25;2.03;;;26.30;99.90;;;;;;5070113;28;20412;-67
2022/08/03 09:35:43;;;;;;;5.25;1.83;;;26.40;99.90;;;;;;5082923;28;20382;-66
2022/08/03 09:38:26;;;;;;;3.67;1.73;;;26.40;99.90;;;;;;5061377;28;20417;-66
2022/08/03 09:40:53;;;;;;;6.45;2.10;;;26.40;99.90;;;;;;5060637;28;20561;-67
2022/08/03 09:43:20;;;;;;;4.88;2.17;;;26.40;99.90;;;;;;5061475;28;20394;-67
2022/08/03 09:45:46;;;;;;;6.00;2.08;;;26.50;99.90;;;;;;5061001;28;20390;-66
2022/08/03 09:48:27;;;;;;;4.40;1.90;;;26.50;99.90;;;;;;5060683;28;20666;-66
2022/08/03 09:50:57;;;;;;;4.20;1.98;;;26.60;99.90;;;;;;5078293;28;20410;-66
2022/08/03 09:53:23;;;;;;;4.93;1.85;;;26.60;99.90;;;;;;5060484;28;20398;-66
2022/08/03 09:56:02;;;;;;;4.30;2.00;;;26.60;99.90;;;;;;5061628;28;20501;-66
2022/08/03 09:58:29;;;;;;;6.00;1.83;;;26.70;99.90;;;;;;5077752;28;20439;-66
2022/08/03 10:00:56;;;;;;;4.47;1.83;;;26.80;99.90;;;;;;5060199;28;20441;-66
2022/08/03 10:03:24;;;;;;;3.40;1.98;;;26.80;99.90;;;;;;5060968;28;20432;-67
2022/08/03 10:05:50;;;;;;;4.65;1.98;;;26.90;99.90;;;;;;5061611;28;20378;-67
2022/08/03 10:08:17;;;;;;;3.73;1.93;;;27.00;99.90;;;;;;5064198;28;20404;-67
2022/08/03 10:10:44;;;;;;;3.83;1.50;;;27.00;99.90;;;;;;5060779;28;20397;-67
2022/08/03 10:13:13;;;;;;;5.05;1.85;;;27.00;99.90;;;;;;5063851;28;20397;-66
2022/08/03 10:15:39;;;;;;;4.80;2.03;;;27.00;99.90;;;;;;5079537;28;20413;-66
2022/08/03 10:18:06;;;;;;;6.85;1.90;;;27.10;99.90;;;;;;5063616;28;20473;-66
2022/08/03 10:21:09;;;;;;;3.50;1.77;;;27.20;99.90;;;;;;5061849;28;20623;-66
2022/08/03 10:23:36;;;;;;;3.75;1.80;;;27.20;99.90;;;;;;4969378;28;20417;-66
2022/08/03 10:26:03;;;;;;;4.70;1.80;;;27.30;99.90;;;;;;5063755;28;20428;-66
2022/08/03 10:28:35;;;;;;;6.40;1.70;;;27.30;99.90;;;;;;5065736;28;20671;-66
2022/08/03 10:31:03;;;;;;;5.30;1.80;;;27.20;99.90;;;;;;5047538;28;20390;-67
2022/08/03 10:33:33;;;;;;;3.05;1.80;;;27.30;99.90;;;;;;5055170;28;20688;-66
2022/08/03 10:36:01;;;;;;;4.33;1.70;;;27.30;99.90;;;;;;5069659;28;20777;-66
2022/08/03 10:38:39;;;;;;;5.90;1.70;;;27.30;99.90;;;;;;5073922;28;20394;-66
2022/08/03 10:41:07;;;;;;;5.63;2.10;;;27.20;99.90;;;;;;5079569;28;20891;-66
2022/08/03 10:43:40;;;;;;;5.07;1.83;;;27.30;99.90;;;;;;5081541;28;20382;-66
2022/08/03 10:46:07;;;;;;;3.97;1.90;;;27.40;99.90;;;;;;5081888;28;20374;-66
2022/08/03 10:48:34;;;;;;;3.95;1.77;;;27.50;99.90;;;;;;5081516;28;20378;-66
2022/08/03 10:51:00;;;;;;;5.78;1.90;;;27.70;99.90;;;;;;5079576;28;20672;-66
2022/08/03 10:53:42;;;;;;;4.97;1.80;;;27.80;99.90;;;;;;5079317;28;20470;-66
2022/08/03 10:59:16;;;;;;;6.28;2.10;;;27.80;99.90;;;;;;5080069;28;20384;-65
2022/08/03 11:01:53;;;;;;;5.68;1.60;;;27.90;99.90;;;;;;5079668;28;20462;-66
2022/08/03 11:04:20;;;;;;;6.23;1.90;;;27.90;99.90;;;;;;5082345;28;20406;-66
2022/08/03 11:06:47;;;;;;;3.95;1.63;;;27.80;99.90;;;;;;5085659;28;20463;-66
2022/08/03 11:09:15;;;;;;;6.57;1.77;;;27.80;99.90;;;;;;5085569;28;20401;-66
2022/08/03 11:11:42;;;;;;;4.38;1.90;;;27.80;99.90;;;;;;5085151;28;20382;-66
2022/08/03 11:14:15;;;;;;;6.55;1.63;;;27.90;99.90;;;;;;5084232;28;20370;-66
2022/08/03 11:17:06;;;;;;;5.25;2.08;;;27.90;99.90;;;;;;5083177;28;20382;-66
2022/08/03 11:19:51;;;;;;;5.53;1.95;;;27.90;99.90;;;;;;5082074;28;20394;-66
2022/08/03 11:22:18;;;;;;;4.50;2.03;;;27.80;99.90;;;;;;5081518;28;20413;-66
2022/08/03 11:24:49;;;;;;;4.80;1.80;;;27.80;99.90;;;;;;5079106;28;21040;-66
2022/08/03 11:27:29;;;;;;;4.67;1.63;;;27.90;99.90;;;;;;5082338;28;20485;-66
2022/08/03 11:29:56;;;;;;;4.47;1.80;;;28.10;99.90;;;;;;5079708;28;21044;-66
2022/08/03 11:32:36;;;;;;;5.57;1.80;;;28.20;99.90;;;;;;5081691;28;20379;-66
2022/08/03 11:35:19;;;;;;;4.70;1.90;;;28.30;99.90;;;;;;5083983;28;20414;-66
2022/08/03 11:37:56;;;;;;;4.43;1.80;;;28.50;99.90;;;;;;5083208;28;20543;-66
2022/08/03 11:40:54;;;;;;;5.00;1.90;;;28.60;99.90;;;;;;5083498;28;20401;-66
2022/08/03 11:43:29;;;;;;;4.97;1.98;;;28.90;99.90;;;;;;5049117;28;20460;-66
2022/08/03 11:46:04;;;;;;;5.38;1.70;;;29.10;99.90;;;;;;5082114;28;21371;-66
2022/08/03 11:48:33;;;;;;;4.17;1.60;;;29.30;99.90;;;;;;5080769;28;20385;-67
2022/08/03 11:51:06;;;;;;;2.53;1.60;;;29.40;99.90;;;;;;5081527;28;20378;-66
2022/08/03 11:53:32;;;;;;;4.93;1.90;;;29.40;99.90;;;;;;5079537;28;20390;-66
2022/08/03 11:55:59;;;;;;;5.65;1.80;;;29.50;99.90;;;;;;5079221;28;20382;-66
2022/08/03 11:58:25;;;;;;;5.00;1.63;;;29.70;99.90;;;;;;5079982;28;21017;-66
2022/08/03 12:00:51;;;;;;;3.80;1.77;;;29.80;99.90;;;;;;5079857;28;20398;-66
2022/08/03 12:03:19;;;;;;;4.97;1.70;;;29.90;99.90;;;;;;5082232;28;20394;-66
2022/08/03 12:05:52;;;;;;;6.75;1.60;;;29.90;99.90;;;;;;5083048;28;20378;-66
2022/08/03 12:08:27;;;;;;;4.63;1.77;;;30.10;99.90;;;;;;5084019;28;20401;-66
2022/08/03 12:10:55;;;;;;;4.80;1.70;;;30.20;99.90;;;;;;5083667;28;20748;-66
2022/08/03 12:13:22;;;;;;;2.95;1.50;;;30.20;99.90;;;;;;5083838;28;20393;-66
2022/08/03 12:15:53;;;;;;;5.53;1.70;;;30.10;99.90;;;;;;5083097;28;20659;-67
2022/08/03 12:18:20;;;;;;;5.45;1.85;;;30.10;99.90;;;;;;5085250;28;20465;-67
2022/08/03 12:20:48;;;;;;;6.07;1.85;;;29.70;99.90;;;;;;5082385;28;20489;-67
2022/08/03 12:23:14;;;;;;;6.33;2.17;;;29.80;99.90;;;;;;5078885;28;20398;-67
2022/08/03 12:25:42;;;;;;;6.20;2.17;;;29.90;99.90;;;;;;5078623;28;20467;-67
2022/08/03 12:28:15;;;;;;;4.65;1.58;;;30.00;99.90;;;;;;5080155;28;20378;-68
2022/08/03 12:30:42;;;;;;;5.37;1.80;;;30.20;99.90;;;;;;5082044;28;20390;-67
2022/08/03 12:33:21;;;;;;;4.05;1.65;;;30.40;99.90;;;;;;5081701;28;20412;-67
2022/08/03 12:36:03;;;;;;;6.03;1.80;;;30.70;99.90;;;;;;5084105;28;20491;-67
2022/08/03 12:38:31;;;;;;;4.20;2.05;;;30.90;99.90;;;;;;5081855;28;20401;-68
2022/08/03 12:40:58;;;;;;;5.78;2.03;;;31.00;99.90;;;;;;5083104;28;20404;-68
2022/08/03 12:43:24;;;;;;;6.20;1.90;;;31.20;99.90;;;;;;5084329;28;20432;-68
2022/08/03 12:45:50;;;;;;;6.78;1.92;;;31.10;99.90;;;;;;5085895;28;20909;-65
2022/08/03 12:48:15;;;;;;;5.05;1.88;;;31.00;99.90;;;;;;5083517;28;20995;-65
2022/08/03 12:50:41;;;;;;;4.47;2.00;;;31.20;99.90;;;;;;5086135;28;20412;-65
2022/08/03 12:53:08;;;;;;;5.00;1.90;;;31.40;99.90;;;;;;5083775;28;20390;-65
2022/08/03 12:55:36;;;;;;;7.85;1.80;;;31.30;99.90;;;;;;5084883;28;20390;-66
2022/08/03 12:58:05;;;;;;;4.70;2.08;;;31.40;99.90;;;;;;5086315;28;20413;-65
2022/08/03 13:00:31;;;;;;;5.43;1.98;;;31.60;99.90;;;;;;5086592;28;20486;-66
2022/08/03 13:03:02;;;;;;;6.82;1.92;;;31.80;99.90;;;;;;5088299;28;20385;-67
2022/08/03 13:05:29;;;;;;;4.63;1.80;;;31.80;99.90;;;;;;5088979;28;20408;-66